Time,TemperatureF,DewpointF,PressureIn,WindDirection,WindDirectionDegrees,WindSpeedMPH,WindSpeedGustMPH,Humidity,HourlyPrecipIn,Conditions,Clouds,dailyrainin,SoftwareType,DateUTC
2013-07-24 00:43:00,67.0,63.0,-100.00,SSE,150,1.0,1.0,85,-99.99,,,-99.99,,2013-07-24 05:43:00,
2013-07-24 00:52:00,67.0,63.0,-100.00,SSE,150,1.0,1.0,85,-99.99,,,-99.99,,2013-07-24 05:52:00,
2013-07-24 01:01:00,67.0,63.0,-100.00,SSE,150,1.0,1.0,85,-99.99,,,-99.99,,2013-07-24 06:01:00,
2013-07-24 01:02:00,65.0,63.0,-100.00,WNW,285,1.0,1.0,95,-99.99,,,-99.99,,2013-07-24 06:02:00,
2013-07-24 01:43:00,65.0,63.0,-100.00,WNW,285,1.0,1.0,95,-99.99,,,-99.99,,2013-07-24 06:43:00,
2013-07-24 01:53:00,65.0,63.0,-100.00,WNW,285,1.0,1.0,95,-99.99,,,-99.99,,2013-07-24 06:53:00,
2013-07-24 02:02:00,64.0,62.0,-100.00,SSE,165,0.0,0.0,96,-99.99,,,-99.99,,2013-07-24 07:02:00,
2013-07-24 02:43:00,64.0,62.0,-100.00,SSE,165,0.0,0.0,96,-99.99,,,-99.99,,2013-07-24 07:43:00,
2013-07-24 02:53:00,64.0,62.0,-100.00,SSE,165,0.0,0.0,96,-99.99,,,-99.99,,2013-07-24 07:53:00,
2013-07-24 03:02:00,62.0,61.0,-100.00,WNW,300,1.0,1.0,98,-99.99,,,-99.99,,2013-07-24 08:02:00,
2013-07-24 03:43:00,62.0,61.0,-100.00,WNW,300,1.0,1.0,98,-99.99,,,-99.99,,2013-07-24 08:43:00,
2013-07-24 03:52:00,62.0,61.0,-100.00,WNW,300,1.0,1.0,98,-99.99,,,-99.99,,2013-07-24 08:52:00,
2013-07-24 04:02:00,60.0,59.0,-100.00,East,90,2.0,2.0,99,-99.99,,,-99.99,,2013-07-24 09:02:00,
2013-07-24 04:43:00,60.0,59.0,-100.00,East,90,2.0,2.0,99,-99.99,,,-99.99,,2013-07-24 09:43:00,
2013-07-24 04:53:00,60.0,59.0,-100.00,East,90,2.0,2.0,99,-99.99,,,-99.99,,2013-07-24 09:53:00,
2013-07-24 05:02:00,58.0,58.0,-100.00,WNW,285,0.0,0.0,99,-99.99,,,-99.99,,2013-07-24 10:02:00,
2013-07-24 05:43:00,58.0,58.0,-100.00,WNW,285,0.0,0.0,99,-99.99,,,-99.99,,2013-07-24 10:43:00,
2013-07-24 05:53:00,58.0,58.0,-100.00,WNW,285,0.0,0.0,99,-99.99,,,-99.99,,2013-07-24 10:53:00,
2013-07-24 06:02:00,56.0,56.0,-100.00,NE,55,0.0,0.0,99,-99.99,,,-99.99,,2013-07-24 11:02:00,
2013-07-24 06:44:00,56.0,56.0,-100.00,NE,55,0.0,0.0,99,-99.99,,,-99.99,,2013-07-24 11:44:00,
2013-07-24 06:52:00,56.0,56.0,-100.00,NE,55,0.0,0.0,99,-99.99,,,-99.99,,2013-07-24 11:52:00,
2013-07-24 07:02:00,58.0,58.0,-100.00,WNW,300,0.0,0.0,99,-99.99,,,-99.99,,2013-07-24 12:02:00,
2013-07-24 07:42:00,58.0,58.0,-100.00,WNW,300,0.0,0.0,99,-99.99,,,-99.99,,2013-07-24 12:42:00,
2013-07-24 07:52:00,58.0,58.0,-100.00,WNW,300,0.0,0.0,99,-99.99,,,-99.99,,2013-07-24 12:52:00,
2013-07-24 08:02:00,62.0,62.0,-100.00,NNE,15,1.0,1.0,99,-99.99,,,-99.99,,2013-07-24 13:02:00,
2013-07-24 08:43:00,62.0,62.0,-100.00,NNE,15,1.0,1.0,99,-99.99,,,-99.99,,2013-07-24 13:43:00,
2013-07-24 08:53:00,62.0,62.0,-100.00,NNE,15,1.0,1.0,99,-99.99,,,-99.99,,2013-07-24 13:53:00,
2013-07-24 09:02:00,67.0,63.0,-100.00,WNW,300,2.0,2.0,86,-99.99,,,-99.99,,2013-07-24 14:02:00,
2013-07-24 09:43:00,67.0,63.0,-100.00,WNW,300,2.0,2.0,86,-99.99,,,-99.99,,2013-07-24 14:43:00,
2013-07-24 09:55:00,67.0,63.0,-100.00,WNW,300,2.0,2.0,86,-99.99,,,-99.99,,2013-07-24 14:55:00,
2013-07-24 10:02:00,74.0,63.0,-100.00,West,270,2.0,2.0,69,-99.99,,,-99.99,,2013-07-24 15:02:00,
2013-07-24 10:43:00,74.0,63.0,-100.00,West,270,2.0,2.0,69,-99.99,,,-99.99,,2013-07-24 15:43:00,
2013-07-24 10:53:00,74.0,63.0,-100.00,West,270,2.0,2.0,69,-99.99,,,-99.99,,2013-07-24 15:53:00,
2013-07-24 11:02:00,79.0,66.0,-100.00,West,270,3.0,5.0,63,-99.99,,,-99.99,,2013-07-24 16:02:00,
2013-07-24 11:43:00,79.0,66.0,-100.00,West,270,3.0,5.0,63,-99.99,,,-99.99,,2013-07-24 16:43:00,
2013-07-24 11:53:00,79.0,66.0,-100.00,West,270,3.0,5.0,63,-99.99,,,-99.99,,2013-07-24 16:53:00,
2013-07-24 12:02:00,80.0,62.0,-100.00,NW,320,2.0,3.0,55,-99.99,,,-99.99,,2013-07-24 17:02:00,
2013-07-24 12:43:00,80.0,62.0,-100.00,NW,320,2.0,3.0,55,-99.99,,,-99.99,,2013-07-24 17:43:00,
2013-07-24 12:53:00,80.0,62.0,-100.00,NW,320,2.0,3.0,55,-99.99,,,-99.99,,2013-07-24 17:53:00,
2013-07-24 14:02:00,79.0,61.0,-100.00,WNW,290,6.0,8.0,54,-99.99,,,-99.99,,2013-07-24 19:02:00,
2013-07-24 14:43:00,79.0,61.0,-100.00,WNW,290,6.0,8.0,54,-99.99,,,-99.99,,2013-07-24 19:43:00,
2013-07-24 14:53:00,79.0,61.0,-100.00,WNW,290,6.0,8.0,54,-99.99,,,-99.99,,2013-07-24 19:53:00,
2013-07-24 15:02:00,83.0,63.0,-100.00,North,0,4.0,8.0,51,-99.99,,,-99.99,,2013-07-24 20:02:00,
2013-07-24 15:33:00,83.0,63.0,-100.00,North,0,4.0,8.0,51,-99.99,,,-99.99,,2013-07-24 20:33:00,
2013-07-24 15:43:00,83.0,63.0,-100.00,North,0,4.0,8.0,51,-99.99,,,-99.99,,2013-07-24 20:43:00,
2013-07-24 15:53:00,83.0,63.0,-100.00,North,0,4.0,8.0,51,-99.99,,,-99.99,,2013-07-24 20:53:00,
2013-07-24 16:02:00,83.0,59.0,-100.00,NW,305,11.0,14.0,45,-99.99,,,-99.99,,2013-07-24 21:02:00,
2013-07-24 16:44:00,83.0,59.0,-100.00,NW,305,11.0,14.0,45,-99.99,,,-99.99,,2013-07-24 21:44:00,
2013-07-24 16:53:00,83.0,59.0,-100.00,NW,305,11.0,14.0,45,-99.99,,,-99.99,,2013-07-24 21:53:00,
2013-07-24 17:02:00,83.0,59.0,-100.00,NW,320,7.0,11.0,45,-99.99,,,-99.99,,2013-07-24 22:02:00,
2013-07-24 17:32:00,83.0,59.0,-100.00,NW,320,7.0,11.0,45,-99.99,,,-99.99,,2013-07-24 22:32:00,
2013-07-24 17:43:00,83.0,59.0,-100.00,NW,320,7.0,11.0,45,-99.99,,,-99.99,,2013-07-24 22:43:00,
2013-07-24 17:53:00,83.0,59.0,-100.00,NW,320,7.0,11.0,45,-99.99,,,-99.99,,2013-07-24 22:53:00,
2013-07-24 18:02:00,83.0,60.0,-100.00,WNW,290,7.0,8.0,46,-99.99,,,-99.99,,2013-07-24 23:02:00,
2013-07-24 18:43:00,83.0,60.0,-100.00,WNW,290,7.0,8.0,46,-99.99,,,-99.99,,2013-07-24 23:43:00,
2013-07-24 18:52:00,83.0,60.0,-100.00,WNW,290,7.0,8.0,46,-99.99,,,-99.99,,2013-07-24 23:52:00,
2013-07-24 19:02:00,79.0,61.0,-100.00,North,355,6.0,9.0,53,-99.99,,,-99.99,,2013-07-25 00:02:00,
2013-07-24 19:43:00,79.0,61.0,-100.00,North,355,6.0,9.0,53,-99.99,,,-99.99,,2013-07-25 00:43:00,
2013-07-24 19:53:00,79.0,61.0,-100.00,North,355,6.0,9.0,53,-99.99,,,-99.99,,2013-07-25 00:53:00,
2013-07-24 20:02:00,77.0,64.0,-100.00,North,0,2.0,2.0,65,-99.99,,,-99.99,,2013-07-25 01:02:00,
2013-07-24 20:43:00,77.0,64.0,-100.00,North,0,2.0,2.0,65,-99.99,,,-99.99,,2013-07-25 01:43:00,
2013-07-24 20:53:00,77.0,64.0,-100.00,North,0,2.0,2.0,65,-99.99,,,-99.99,,2013-07-25 01:53:00,
2013-07-24 23:02:00,70.0,60.0,-100.00,East,80,0.0,0.0,72,-99.99,,,-99.99,,2013-07-25 04:02:00,
2013-07-24 23:43:00,70.0,60.0,-100.00,East,80,0.0,0.0,72,-99.99,,,-99.99,,2013-07-25 04:43:00,
2013-07-24 23:53:00,70.0,60.0,-100.00,East,80,0.0,0.0,72,-99.99,,,-99.99,,2013-07-25 04:53:00,